Time;durP1;ratioP1;P1;durP2;ratioP2;P2;SDS_P1;SDS_P2;PMS_P1;PMS_P2;Temp;Humidity;BMP_temperature;BMP_pressure;BME280_temperature;BME280_humidity;BME280_pressure;Samples;Min_cycle;Max_cycle;Signal;HPM_P1;HPM_P2
2020/12/16 00:00:47;;;;;;;;;;;;;;;0.62;97.62;98570.75;5079135;28;20021;-81
2020/12/16 00:03:13;;;;;;;26.45;13.18;;;;;;;0.43;98.28;98567.16;5077665;28;19917;-83
2020/12/16 00:05:38;;;;;;;;;;;;;;;0.55;98.17;98573.50;5078260;28;20013;-81
2020/12/16 00:08:03;;;;;;;28.13;12.02;;;;;;;0.54;97.98;98571.81;5077867;28;19968;-82
2020/12/16 00:10:29;;;;;;;;;;;;;;;0.56;97.96;98572.47;5078682;28;20017;-80
2020/12/16 00:12:54;;;;;;;29.90;14.45;;;;;;;0.47;97.95;98571.06;5078123;28;19908;-80
2020/12/16 00:15:20;;;;;;;27.50;14.68;;;;;;;0.46;98.27;98574.78;5077675;28;20037;-80
2020/12/16 00:17:45;;;;;;;;;;;;;;;0.42;98.47;98578.94;5078177;28;20080;-79
2020/12/16 00:20:10;;;;;;;30.73;14.70;;;;;;;0.47;98.38;98573.75;5077645;28;19901;-81
2020/12/16 00:22:40;;;;;;;24.80;15.20;;;;;;;0.30;98.19;98556.44;5077961;28;20037;-78
2020/12/16 00:25:07;;;;;;;29.05;15.70;;;;;;;0.43;98.38;98585.97;5078072;28;20029;-80
2020/12/16 00:27:32;;;;;;;30.33;15.32;;;;;;;0.42;98.62;98578.94;5077467;28;20013;-79
2020/12/16 00:29:58;;;;;;;28.38;14.82;;;;;;;0.33;98.66;98554.16;5077204;28;20048;-81
2020/12/16 00:52:54;;;;;;;39.83;17.05;;;;;;;0.09;99.35;98562.16;5690965;22;20251;-78
2020/12/16 00:55:20;;;;;;;36.08;17.95;;;;;;;0.20;99.96;98580.28;5077432;28;20045;-83
2020/12/16 00:57:46;;;;;;;;;;;;;;;0.32;100.00;98584.78;5076818;28;20036;-81
2020/12/16 01:00:12;;;;;;;41.33;18.45;;;;;;;0.05;100.00;98552.84;5080386;28;19956;-81
2020/12/16 01:02:45;;;;;;;48.80;17.27;;;;;;;0.04;100.00;98556.56;5081478;28;20029;-78
2020/12/16 01:05:13;;;;;;;39.25;15.95;;;;;;;-0.05;100.00;98559.50;5081140;28;20021;-78
2020/12/16 01:07:39;;;;;;;42.60;16.63;;;;;;;0.04;100.00;98564.63;5097473;28;20032;-77
2020/12/16 01:10:05;;;;;;;35.22;14.45;;;;;;;0.17;99.81;98580.72;5080666;28;20005;-78
2020/12/16 01:12:35;;;;;;;43.67;17.58;;;;;;;0.08;100.00;98560.47;5080316;28;20050;-83
2020/12/16 01:15:01;;;;;;;29.30;15.60;;;;;;;0.18;99.74;98568.94;5079681;28;20061;-80
2020/12/16 01:17:27;;;;;;;34.55;15.23;;;;;;;0.31;99.56;98566.19;5080536;28;20028;-78
2020/12/16 01:19:52;;;;;;;48.33;18.65;;;;;;;0.17;99.57;98561.88;5080730;28;20068;-79
2020/12/16 01:22:18;;;;;;;46.83;18.73;;;;;;;0.08;100.00;98582.00;5080537;28;20032;-81
2020/12/16 01:24:44;;;;;;;;;;;;;;;0.34;100.00;98604.25;5080613;28;20020;-86
2020/12/16 01:27:13;;;;;;;35.85;14.65;;;;;;;0.40;100.00;98610.63;5080324;28;19916;-85
2020/12/16 01:29:41;;;;;;;42.67;18.58;;;;;;;0.09;100.00;98572.91;5080186;28;21539;-88
2020/12/16 01:32:06;;;;;;;30.73;16.42;;;;;;;0.07;100.00;98572.28;5080978;28;20017;-84
2020/12/16 01:34:32;;;;;;;37.15;15.90;;;;;;;0.14;100.00;98575.75;5080508;28;20085;-80
2020/12/16 01:36:57;;;;;;;33.80;17.40;;;;;;;0.07;100.00;98561.50;5078048;28;20013;-86
2020/12/16 01:39:23;;;;;;;;;;;;;;;0.30;100.00;98596.81;5078491;28;20029;-85
2020/12/16 01:41:49;;;;;;;34.28;14.00;;;;;;;0.20;100.00;98588.34;5079238;28;19901;-87
2020/12/16 01:44:24;;;;;;;34.63;15.40;;;;;;;0.13;100.00;98557.97;5079381;28;20037;-84
2020/12/16 01:46:52;;;;;;;38.25;17.42;;;;;;;0.22;100.00;98562.09;5079654;28;20398;-83
2020/12/16 01:49:19;;;;;;;48.33;17.70;;;;;;;0.21;100.00;98565.81;5079562;28;20040;-84
2020/12/16 01:51:45;;;;;;;41.08;15.45;;;;;;;0.17;100.00;98562.72;5079234;28;20073;-85
2020/12/16 01:54:15;;;;;;;40.88;15.73;;;;;;;0.20;100.00;98556.09;5079495;28;20053;-84
2020/12/16 01:56:41;;;;;;;33.33;16.25;;;;;;;0.30;100.00;98553.75;5079573;28;20013;-80
2020/12/16 01:59:15;;;;;;;48.47;18.38;;;;;;;0.17;100.00;98548.44;5079517;28;20005;-82
2020/12/16 02:01:42;;;;;;;38.50;16.90;;;;;;;0.23;100.00;98553.78;5080290;28;20016;-83
2020/12/16 02:04:13;;;;;;;36.53;16.08;;;;;;;0.27;100.00;98590.00;5079045;28;20025;-87
2020/12/16 02:06:41;;;;;;;39.25;16.52;;;;;;;0.04;100.00;98535.06;5079132;28;20029;-82
2020/12/16 02:09:09;;;;;;;42.70;15.90;;;;;;;0.17;100.00;98551.97;5079111;28;20013;-80
2020/12/16 02:11:37;;;;;;;52.10;18.77;;;;;;;0.27;100.00;98556.88;5078884;28;20017;-85
2020/12/16 02:14:11;;;;;;;44.58;15.40;;;;;;;0.20;100.00;98548.00;5079521;28;20028;-82
2020/12/16 02:16:38;;;;;;;42.03;18.23;;;;;;;0.13;100.00;98545.34;5079002;28;20017;-81
2020/12/16 02:19:07;;;;;;;44.88;16.08;;;;;;;0.14;100.00;98540.81;5079905;28;20040;-84
2020/12/16 02:21:34;;;;;;;35.47;16.60;;;;;;;0.23;100.00;98542.22;5079267;28;20013;-80
2020/12/16 02:24:11;;;;;;;41.88;17.40;;;;;;;0.17;100.00;98548.44;5079201;28;20017;-83
2020/12/16 02:26:39;;;;;;;45.28;17.30;;;;;;;0.24;100.00;98546.56;5079259;28;20019;-79
2020/12/16 02:29:09;;;;;;;34.35;14.35;;;;;;;0.33;99.95;98539.88;5079586;28;20013;-84
2020/12/16 02:31:36;;;;;;;36.03;16.70;;;;;;;0.37;99.41;98535.72;5078748;28;20080;-88
2020/12/16 02:34:03;;;;;;;36.50;16.10;;;;;;;0.37;99.69;98541.94;5078369;28;20025;-81
2020/12/16 02:36:29;;;;;;;39.25;15.45;;;;;;;0.43;99.77;98543.75;5079285;28;20032;-80
2020/12/16 02:38:55;;;;;;;42.20;15.35;;;;;;;0.32;99.34;98533.66;5078802;28;20025;-83
2020/12/16 02:41:24;;;;;;;;;;;;;;;0.69;99.45;98568.88;5079645;28;20017;-88
2020/12/16 02:43:50;;;;;;;37.83;13.88;;;;;;;0.66;99.11;98539.69;5069759;28;19951;-87
2020/12/16 02:46:17;;;;;;;42.72;16.80;;;;;;;0.82;98.95;98566.88;5077604;28;20033;-89
2020/12/16 02:48:43;;;;;;;34.08;15.48;;;;;;;0.56;98.60;98532.09;5072681;28;20021;-86
2020/12/16 02:51:08;;;;;;;31.42;13.85;;;;;;;0.58;98.79;98540.75;5073041;28;20084;-87
2020/12/16 02:53:34;;;;;;;31.65;14.40;;;;;;;0.74;98.62;98551.00;5073196;28;20045;-88
2020/12/16 02:56:00;;;;;;;;;;;;;;;0.65;99.03;98549.63;5074220;28;20051;-86
2020/12/16 02:58:26;;;;;;;45.40;17.30;;;;;;;0.40;99.57;98521.84;5073787;28;19916;-84
2020/12/16 03:00:52;;;;;;;35.95;17.02;;;;;;;0.58;100.00;98575.75;5073280;28;20212;-86
2020/12/16 03:03:18;;;;;;;37.05;15.27;;;;;;;0.37;100.00;98535.72;5074647;28;20035;-88
2020/12/16 03:05:44;;;;;;;40.15;16.73;;;;;;;0.35;100.00;98538.63;5074756;28;20005;-88
2020/12/16 03:08:10;;;;;;;45.08;17.52;;;;;;;0.13;100.00;98514.94;5073902;28;20040;-87
2020/12/16 03:10:37;;;;;;;33.88;15.15;;;;;;;0.26;100.00;98552.53;5071995;28;20027;-89
2020/12/16 03:13:03;;;;;;;34.38;16.33;;;;;;;0.19;100.00;98525.66;5071273;28;20093;-85
2020/12/16 03:15:29;;;;;;;43.42;15.35;;;;;;;0.08;100.00;98534.44;5072729;28;20028;-85
2020/12/16 03:17:55;;;;;;;36.72;14.50;;;;;;;0.55;100.00;98565.41;5072759;28;20085;-85
2020/12/16 03:20:21;;;;;;;37.47;15.40;;;;;;;0.16;100.00;98541.44;5072562;28;20025;-85
2020/12/16 03:22:46;;;;;;;;;;;;;;;0.36;100.00;98569.88;5071678;28;20029;-87
2020/12/16 03:25:12;;;;;;;40.50;15.13;;;;;;;0.42;100.00;98562.78;5072438;28;19921;-86
2020/12/16 03:27:37;;;;;;;;;;;;;;;0.35;100.00;98572.75;5071777;28;20560;-83
2020/12/16 03:30:04;;;;;;;34.55;14.38;;;;;;;0.26;100.00;98549.84;5072144;28;19923;-90
2020/12/16 03:32:29;;;;;;;41.75;14.57;;;;;;;0.17;100.00;98543.06;5070883;28;20029;-87
2020/12/16 03:34:55;;;;;;;37.50;14.82;;;;;;;0.08;100.00;98549.72;5069546;28;20028;-83
2020/12/16 03:37:21;;;;;;;33.97;16.48;;;;;;;0.08;100.00;98572.06;5069588;28;20061;-86
2020/12/16 03:39:46;;;;;;;;;;;;;;;0.26;100.00;98600.94;5069788;28;20040;-86
2020/12/16 03:42:12;;;;;;;35.33;13.35;;;;;;;0.18;100.00;98564.38;5086779;28;19956;-88
2020/12/16 03:44:37;;;;;;;36.28;14.65;;;;;;;0.12;100.00;98559.84;5071231;28;20032;-80
2020/12/16 03:47:03;;;;;;;;;;;;;;;0.37;100.00;98602.97;5077898;28;20045;-84
2020/12/16 03:49:28;;;;;;;34.22;14.35;;;;;;;0.10;100.00;98575.38;5077342;28;19901;-85
2020/12/16 03:51:56;;;;;;;41.63;16.08;;;;;;;-0.02;100.00;98559.09;5077791;28;20025;-83
2020/12/16 03:54:25;;;;;;;28.42;13.07;;;;;;;0.14;100.00;98570.38;5077595;28;20032;-85
2020/12/16 03:56:51;;;;;;;30.45;13.63;;;;;;;0.12;100.00;98583.22;5077026;28;20009;-83
2020/12/16 03:59:16;;;;;;;29.02;14.05;;;;;;;0.15;100.00;98615.06;5076806;28;20029;-84
2020/12/16 04:01:44;;;;;;;;;;;;;;;0.28;100.00;98609.66;5077755;28;20025;-83
2020/12/16 04:04:10;;;;;;;34.67;14.02;;;;;;;0.11;100.00;98605.78;5077200;28;19907;-80
2020/12/16 04:06:36;;;;;;;31.98;12.63;;;;;;;-0.03;100.00;98572.72;5093045;28;20031;-82
2020/12/16 04:09:04;;;;;;;28.90;13.52;;;;;;;-0.04;100.00;98606.88;5077312;28;20013;-80
2020/12/16 04:11:29;;;;;;;39.05;15.55;;;;;;;-0.03;100.00;98597.75;5077685;28;20021;-86
2020/12/16 04:13:56;;;;;;;35.30;14.75;;;;;;;-0.04;100.00;98598.81;5076070;28;20024;-84
2020/12/16 04:16:24;;;;;;;31.23;13.23;;;;;;;0.06;100.00;98594.84;5076934;28;20024;-80
2020/12/16 04:18:50;;;;;;;27.95;12.25;;;;;;;0.32;100.00;98624.31;5077188;28;20028;-81
2020/12/16 04:21:17;;;;;;;31.58;13.50;;;;;;;0.03;100.00;98600.66;5077588;28;20025;-80
2020/12/16 04:23:43;;;;;;;33.45;13.23;;;;;;;0.08;100.00;98604.34;5077333;28;20088;-81
2020/12/16 04:26:09;;;;;;;30.15;12.95;;;;;;;0.16;100.00;98597.91;5076082;28;20024;-90
2020/12/16 04:28:35;;;;;;;;;;;;;;;0.23;100.00;98626.41;5076852;28;20108;-87
2020/12/16 04:31:05;;;;;;;34.22;15.07;;;;;;;-0.07;100.00;98595.72;5075121;28;20007;-87
2020/12/16 04:33:31;;;;;;;28.65;13.48;;;;;;;0.26;100.00;98633.22;5077459;28;20008;-81
2020/12/16 04:35:57;;;;;;;32.95;14.98;;;;;;;-0.12;100.00;98595.50;5077486;28;20037;-83
2020/12/16 04:38:23;;;;;;;42.85;13.05;;;;;;;0.01;100.00;98598.16;5075209;28;20067;-89
2020/12/16 04:40:48;;;;;;;34.78;15.18;;;;;;;-0.09;100.00;98612.03;5074928;28;20032;-81
2020/12/16 04:43:22;;;;;;;27.25;12.85;;;;;;;-0.12;100.00;98587.44;5076408;28;20044;-83
2020/12/16 04:45:49;;;;;;;39.72;14.70;;;;;;;-0.06;100.00;98602.72;5076085;28;20017;-83
2020/12/16 04:48:16;;;;;;;30.15;14.05;;;;;;;-0.27;100.00;98595.75;5076559;28;20037;-80
2020/12/16 04:50:43;;;;;;;23.90;12.43;;;;;;;-0.20;100.00;98601.94;5077076;28;20080;-80
2020/12/16 04:53:18;;;;;;;35.88;11.48;;;;;;;-0.13;100.00;98581.25;5076397;28;20086;-80
2020/12/16 04:55:46;;;;;;;43.80;14.73;;;;;;;-0.17;100.00;98612.28;5077091;28;20036;-82
2020/12/16 04:58:12;;;;;;;28.77;13.95;;;;;;;-0.10;100.00;98596.13;5077107;28;20069;-80
2020/12/16 05:00:38;;;;;;;30.55;12.10;;;;;;;-0.14;100.00;98606.47;5077485;28;20028;-80
2020/12/16 05:03:10;;;;;;;;;;;;;;;0.09;100.00;98642.81;5077641;28;20067;-88
2020/12/16 05:05:36;;;;;;;27.30;12.05;;;;;;;-0.24;100.00;98595.34;5077094;28;19908;-83
2020/12/16 05:08:15;;;;;;;28.60;13.60;;;;;;;-0.20;100.00;98615.38;5071203;28;20043;-84
2020/12/16 05:10:44;;;;;;;37.47;13.23;;;;;;;-0.16;100.00;98618.47;5063717;28;20060;-89
2020/12/16 05:13:11;;;;;;;26.00;13.10;;;;;;;-0.19;100.00;98635.84;5062083;28;20049;-87
2020/12/16 05:15:38;;;;;;;32.40;10.77;;;;;;;-0.20;100.00;98620.75;5063876;28;20021;-85
2020/12/16 05:18:16;;;;;;;37.60;12.48;;;;;;;-0.01;100.00;98654.84;5064705;28;20108;-86
2020/12/16 05:20:49;;;;;;;36.58;12.80;;;;;;;-0.13;100.00;98626.13;5062732;28;20057;-83
2020/12/16 05:23:15;;;;;;;34.00;13.52;;;;;;;0.05;100.00;98657.72;5055140;28;20040;-87
2020/12/16 05:26:06;;;;;;;33.65;13.90;;;;;;;-0.04;100.00;98643.69;5058731;28;20044;-88
2020/12/16 05:28:40;;;;;;;27.40;12.88;;;;;;;0.05;100.00;98660.41;5058373;28;20096;-84
2020/12/16 05:31:09;;;;;;;26.05;12.30;;;;;;;-0.02;100.00;98655.03;5056823;28;20413;-86
2020/12/16 05:33:46;;;;;;;34.80;12.32;;;;;;;-0.07;100.00;98654.84;5079482;28;20017;-88
2020/12/16 05:36:11;;;;;;;;;;;;;;;-0.01;100.00;98659.38;5060159;28;20037;-87
2020/12/16 05:38:51;;;;;;;22.98;10.82;;;;;;;0.16;100.00;98665.13;5061449;28;20334;-88
2020/12/16 05:41:23;;;;;;;25.13;12.05;;;;;;;0.05;100.00;98668.47;5060358;28;20025;-85
2020/12/16 05:43:49;;;;;;;27.40;12.10;;;;;;;-0.11;100.00;98658.97;5059808;28;20095;-89
2020/12/16 05:46:24;;;;;;;25.23;11.18;;;;;;;-0.04;100.00;98674.06;5055051;28;20029;-89
2020/12/16 05:48:50;;;;;;;24.05;10.55;;;;;;;-0.05;100.00;98669.72;5039430;28;20037;-84
2020/12/16 05:51:16;;;;;;;;;;;;;;;0.10;100.00;98665.97;5042181;28;20494;-86
2020/12/16 05:53:41;;;;;;;28.42;12.68;;;;;;;0.14;100.00;98670.72;5045755;28;20318;-88
2020/12/16 05:56:07;;;;;;;;;;;;;;;0.09;100.00;98669.69;5051607;28;20029;-86
2020/12/16 05:58:33;;;;;;;26.98;13.35;;;;;;;0.04;100.00;98682.94;5050530;28;19916;-86
2020/12/16 06:01:00;;;;;;;36.30;12.75;;;;;;;-0.07;100.00;98666.44;5054272;28;20064;-87
2020/12/16 06:03:26;;;;;;;25.38;12.15;;;;;;;0.14;100.00;98672.56;5063650;28;20029;-88
2020/12/16 06:05:59;;;;;;;26.83;12.10;;;;;;;0.11;100.00;98673.00;5070636;28;20034;-85
2020/12/16 06:08:28;;;;;;;34.13;12.73;;;;;;;0.14;100.00;98680.66;5057989;28;20026;-82
2020/12/16 06:10:53;;;;;;;24.95;12.48;;;;;;;0.07;100.00;98669.06;5059160;28;20033;-80
2020/12/16 06:13:20;;;;;;;26.25;13.43;;;;;;;0.18;100.00;98688.09;5068574;28;20021;-80
2020/12/16 06:16:03;;;;;;;24.38;11.13;;;;;;;0.22;100.00;98685.81;5064225;28;20057;-86
2020/12/16 06:18:44;;;;;;;25.25;11.95;;;;;;;0.17;100.00;98696.34;5059392;28;20048;-80
2020/12/16 06:21:14;;;;;;;28.02;13.38;;;;;;;0.23;100.00;98679.38;5050658;28;20045;-84
2020/12/16 06:23:43;;;;;;;32.92;12.30;;;;;;;0.36;100.00;98692.78;5456129;22;20036;-73
2020/12/16 06:26:16;;;;;;;31.25;13.20;;;;;;;0.29;100.00;98687.44;5041942;28;20029;-76
2020/12/16 06:28:43;;;;;;;30.23;12.70;;;;;;;0.24;100.00;98684.56;5043560;28;20036;-74
2020/12/16 06:31:14;;;;;;;34.50;12.93;;;;;;;0.29;100.00;98691.97;5044418;28;20039;-75
2020/12/16 06:34:10;;;;;;;34.33;15.57;;;;;;;0.32;100.00;98692.38;5046814;28;20027;-75
2020/12/16 06:36:42;;;;;;;33.70;14.82;;;;;;;0.28;100.00;98693.03;5046698;28;20017;-81
2020/12/16 06:39:19;;;;;;;36.00;15.35;;;;;;;0.22;100.00;98691.19;5057777;28;20021;-80
2020/12/16 06:41:51;;;;;;;36.03;13.55;;;;;;;0.19;100.00;98697.78;5057247;28;20017;-79
2020/12/16 06:44:17;;;;;;;35.78;14.20;;;;;;;0.15;100.00;98695.75;5069584;28;20070;-88
2020/12/16 06:46:45;;;;;;;27.80;13.02;;;;;;;0.16;100.00;98702.78;5076641;28;20032;-79
2020/12/16 06:49:22;;;;;;;31.38;12.55;;;;;;;0.26;100.00;98703.16;5078378;28;20020;-79
2020/12/16 06:51:50;;;;;;;33.42;12.95;;;;;;;0.32;100.00;98705.00;5078462;28;20042;-80
2020/12/16 06:54:20;;;;;;;30.38;14.35;;;;;;;0.19;100.00;98697.00;5078789;28;20037;-79
2020/12/16 06:57:09;;;;;;;37.08;13.70;;;;;;;0.21;100.00;98701.13;5075992;28;20048;-78
2020/12/16 06:59:45;;;;;;;36.47;12.55;;;;;;;0.28;100.00;98703.78;5078344;28;20017;-78
2020/12/16 07:02:16;;;;;;;38.53;13.40;;;;;;;0.26;100.00;98703.16;5079855;28;20027;-86
2020/12/16 07:04:42;;;;;;;27.63;12.40;;;;;;;0.27;100.00;98700.28;5078411;28;20037;-87
2020/12/16 07:11:12;;;;;;;22.02;10.77;;;;;;;0.46;100.00;98706.63;5079587;28;20071;-83
2020/12/16 07:13:38;;;;;;;27.30;11.35;;;;;;;0.17;100.00;98694.50;5064016;28;20409;-89
2020/12/16 07:16:12;;;;;;;28.17;12.63;;;;;;;0.34;100.00;98711.00;5061787;28;20029;-90
2020/12/16 07:18:46;;;;;;;34.03;13.10;;;;;;;0.34;100.00;98705.63;5061912;28;20013;-88
2020/12/16 07:21:11;;;;;;;33.00;13.27;;;;;;;0.55;100.00;98710.72;5056790;28;20102;-85
2020/12/16 07:24:05;;;;;;;32.35;14.80;;;;;;;0.37;100.00;98711.44;5054797;28;20490;-85
2020/12/16 07:26:42;;;;;;;38.20;16.58;;;;;;;0.32;100.00;98705.84;5057217;28;20025;-92
2020/12/16 07:29:21;;;;;;;29.75;13.98;;;;;;;0.33;100.00;98702.13;5058409;28;20029;-88
2020/12/16 07:32:04;;;;;;;32.60;13.82;;;;;;;0.32;100.00;98707.69;5059329;28;20029;-90
2020/12/16 07:34:43;;;;;;;47.95;15.80;;;;;;;0.30;100.00;98716.00;5069405;28;20029;-92
2020/12/16 07:37:09;;;;;;;28.63;14.07;;;;;;;0.42;100.00;98708.91;5064625;28;20024;-89
2020/12/16 07:39:44;;;;;;;35.17;15.73;;;;;;;0.53;100.00;98726.28;5044538;28;20026;-85
2020/12/16 07:42:09;;;;;;;43.72;14.80;;;;;;;0.79;100.00;98726.16;5038160;28;20034;-79
2020/12/16 07:44:35;;;;;;;36.65;14.75;;;;;;;0.56;100.00;98725.84;5036969;28;20025;-85
2020/12/16 07:47:01;;;;;;;;;;;;;;;0.62;100.00;98726.84;5039242;28;20017;-87
2020/12/16 07:49:29;;;;;;;39.20;13.25;;;;;;;0.49;100.00;98719.66;5038687;28;19920;-88
2020/12/16 07:52:02;;;;;;;35.38;14.13;;;;;;;0.61;100.00;98717.94;5044477;28;20029;-84
2020/12/16 07:54:29;;;;;;;35.20;14.85;;;;;;;0.51;100.00;98720.25;5057571;28;20056;-86
2020/12/16 07:56:55;;;;;;;29.15;14.50;;;;;;;0.47;100.00;98727.13;5056388;28;20413;-88
2020/12/16 07:59:20;;;;;;;28.95;14.18;;;;;;;0.37;100.00;98721.34;5056614;28;20019;-87
2020/12/16 08:01:46;;;;;;;40.60;14.98;;;;;;;0.47;100.00;98729.81;5055787;28;20071;-87
2020/12/16 08:04:16;;;;;;;36.25;15.52;;;;;;;0.53;100.00;98723.59;5056059;28;20131;-88
2020/12/16 08:06:42;;;;;;;35.38;15.65;;;;;;;0.59;100.00;98736.19;5056227;28;20028;-87
2020/12/16 08:09:07;;;;;;;35.67;13.30;;;;;;;0.50;100.00;98719.44;5056380;28;20040;-90
2020/12/16 08:11:33;;;;;;;39.55;17.38;;;;;;;0.68;100.00;98742.16;5058039;28;20532;-89
2020/12/16 08:14:02;;;;;;;;;;;;;;;0.61;100.00;98735.97;5060345;28;20108;-90
2020/12/16 08:16:28;;;;;;;33.28;14.38;;;;;;;0.81;100.00;98724.09;5056944;28;19988;-91
2020/12/16 08:18:53;;;;;;;35.40;16.65;;;;;;;0.83;100.00;98730.06;5057811;28;20033;-90
2020/12/16 08:21:21;;;;;;;38.85;15.20;;;;;;;0.86;100.00;98729.66;5057740;28;20652;-90
2020/12/16 08:23:50;;;;;;;45.22;17.08;;;;;;;0.75;100.00;98724.13;5048524;28;20064;-83
2020/12/16 08:26:17;;;;;;;48.22;18.30;;;;;;;0.72;100.00;98727.25;5038872;28;20222;-89
2020/12/16 08:28:43;;;;;;;40.03;15.07;;;;;;;0.70;100.00;98730.13;5038763;28;20098;-91
2020/12/16 08:31:10;;;;;;;28.35;14.93;;;;;;;0.76;100.00;98731.97;5052139;28;20032;-90
2020/12/16 08:33:37;;;;;;;29.17;15.30;;;;;;;0.94;99.95;98740.16;5047099;28;20040;-89
2020/12/16 08:36:09;;;;;;;34.25;16.55;;;;;;;1.05;98.76;98734.13;5055681;28;20390;-89
2020/12/16 08:38:38;;;;;;;38.33;12.60;;;;;;;1.21;98.59;98738.16;5054664;28;20026;-88
2020/12/16 08:41:06;;;;;;;32.05;15.38;;;;;;;1.29;98.17;98748.69;5053344;28;20029;-90
2020/12/16 08:43:35;;;;;;;38.92;17.10;;;;;;;1.13;97.94;98737.59;5058417;28;20025;-90
2020/12/16 08:46:02;;;;;;;37.22;14.80;;;;;;;1.14;98.41;98739.25;5057718;28;20021;-87
2020/12/16 08:48:27;;;;;;;26.48;16.70;;;;;;;1.30;98.27;98723.41;5057751;28;20021;-90
2020/12/16 08:51:04;;;;;;;35.42;14.80;;;;;;;1.11;98.22;98729.72;5057756;28;20032;-90
2020/12/16 08:53:42;;;;;;;31.30;14.77;;;;;;;1.36;97.88;98735.16;5057235;28;20021;-90
2020/12/16 08:56:33;;;;;;;37.83;17.00;;;;;;;1.40;97.37;98733.69;5055105;28;20063;-87
2020/12/16 08:59:09;;;;;;;37.92;15.93;;;;;;;1.53;96.85;98725.53;5067430;28;20013;-89
2020/12/16 09:01:36;;;;;;;34.78;16.95;;;;;;;1.73;95.96;98736.13;5063724;28;20057;-86
2020/12/16 09:04:03;;;;;;;32.75;13.88;;;;;;;1.79;95.48;98743.34;5045335;28;20033;-86
2020/12/16 09:06:28;;;;;;;29.42;15.60;;;;;;;1.69;95.43;98734.94;5038325;28;20482;-80
2020/12/16 09:08:54;;;;;;;36.05;16.30;;;;;;;1.60;96.20;98740.59;5036497;28;20033;-79
2020/12/16 09:11:20;;;;;;;;;;;;;;;1.85;95.63;98737.91;5036990;28;20536;-77
2020/12/16 09:13:47;;;;;;;31.80;14.45;;;;;;;1.74;95.77;98732.41;5045803;28;19932;-78
2020/12/16 09:16:23;;;;;;;29.90;14.75;;;;;;;1.87;94.90;98735.84;5034609;28;20130;-77
2020/12/16 09:18:53;;;;;;;29.40;15.60;;;;;;;1.87;94.29;98735.84;5037094;28;20044;-82
2020/12/16 09:21:33;;;;;;;37.00;16.50;;;;;;;1.98;94.08;98745.88;5038073;28;20059;-84
2020/12/16 09:24:00;;;;;;;34.75;15.05;;;;;;;1.87;94.39;98741.22;5045457;28;20510;-86
2020/12/16 09:26:37;;;;;;;39.70;16.90;;;;;;;1.90;94.50;98724.59;5041995;28;20021;-84
2020/12/16 09:29:23;;;;;;;39.65;20.45;;;;;;;1.91;94.04;98723.53;5040179;28;20028;-82
2020/12/16 09:31:51;;;;;;;43.17;19.95;;;;;;;2.00;94.04;98724.94;5041650;28;20025;-82
2020/12/16 09:34:18;;;;;;;40.30;17.90;;;;;;;2.26;93.91;98723.00;5052232;28;20032;-80
2020/12/16 09:36:44;;;;;;;38.88;17.35;;;;;;;2.11;92.95;98716.09;5032178;28;20033;-81
2020/12/16 09:39:10;;;;;;;32.60;18.38;;;;;;;2.09;93.08;98717.38;5036332;28;20832;-82
2020/12/16 09:41:50;;;;;;;32.90;17.42;;;;;;;2.21;93.26;98712.91;5051043;28;20394;-80
2020/12/16 09:44:22;;;;;;;36.53;17.10;;;;;;;2.40;91.96;98708.34;5051024;28;20032;-77
2020/12/16 09:46:48;;;;;;;39.70;16.65;;;;;;;2.33;92.76;98712.97;5051880;28;20025;-82
2020/12/16 09:49:17;;;;;;;45.00;19.80;;;;;;;2.63;92.55;98695.78;5050912;28;20425;-87
2020/12/16 09:51:43;;;;;;;36.95;19.63;;;;;;;2.58;91.84;98706.47;5052541;28;20033;-88
2020/12/16 09:54:08;;;;;;;31.38;16.92;;;;;;;2.68;91.52;98708.63;5052049;28;20033;-89
2020/12/16 09:56:34;;;;;;;36.63;17.55;;;;;;;2.57;91.60;98707.50;5053539;28;21046;-88
2020/12/16 09:58:59;;;;;;;;;;;;;;;2.68;91.04;98704.06;5052085;28;20020;-88
2020/12/16 10:01:24;;;;;;;33.67;15.50;;;;;;;2.63;91.14;98703.91;5052023;28;19916;-87
2020/12/16 10:03:50;;;;;;;;;;;;;;;2.89;89.69;98694.66;5052250;28;20112;-86
2020/12/16 10:06:16;;;;;;;37.80;16.48;;;;;;;2.71;90.08;98700.06;5052945;28;19923;-86
2020/12/16 10:08:43;;;;;;;30.65;16.92;;;;;;;2.70;90.39;98687.63;5051416;28;20063;-91
2020/12/16 10:11:15;;;;;;;42.05;18.35;;;;;;;2.77;89.96;98680.25;5053145;28;20040;-86
2020/12/16 10:13:44;;;;;;;35.13;19.08;;;;;;;3.06;89.00;98684.88;5051600;28;20106;-89
2020/12/16 10:16:10;;;;;;;31.05;15.30;;;;;;;3.09;88.86;98679.00;5052782;28;20403;-86
2020/12/16 10:18:36;;;;;;;34.50;15.70;;;;;;;3.04;89.42;98680.72;5052121;28;20017;-85
2020/12/16 10:21:03;;;;;;;29.85;14.77;;;;;;;3.22;88.26;98676.13;5051781;28;20021;-88
2020/12/16 10:23:28;;;;;;;32.58;15.68;;;;;;;4.01;90.63;98674.78;5051282;28;20478;-89
2020/12/16 10:25:53;;;;;;;29.55;14.23;;;;;;;3.75;86.34;98672.56;5051860;28;20036;-90
2020/12/16 10:28:21;;;;;;;27.42;16.00;;;;;;;3.54;86.35;98673.94;5054243;28;20029;-85
2020/12/16 10:30:48;;;;;;;25.77;14.10;;;;;;;3.72;87.13;98670.34;5049940;28;20040;-90
2020/12/16 10:33:14;;;;;;;28.50;15.40;;;;;;;3.87;85.37;98673.41;5032129;28;20025;-90
2020/12/16 10:35:39;;;;;;;25.55;14.95;;;;;;;4.55;82.87;98672.75;5049358;28;20398;-91
2020/12/16 10:38:05;;;;;;;27.10;13.45;;;;;;;5.27;79.43;98663.06;5054246;28;20540;-84
2020/12/16 10:40:31;;;;;;;;;;;;;;;5.10;79.13;98660.31;5053010;28;20116;-87
2020/12/16 10:42:58;;;;;;;30.87;13.23;;;;;;;4.56;81.01;98660.84;5054573;28;19923;-85
2020/12/16 10:45:25;;;;;;;35.65;14.77;;;;;;;4.54;81.49;98657.56;5050385;28;20079;-85
2020/12/16 10:47:57;;;;;;;25.67;13.75;;;;;;;4.67;81.15;98654.56;5051109;28;20029;-84
2020/12/16 10:50:23;;;;;;;30.65;13.93;;;;;;;4.46;81.75;98653.34;5051644;28;20587;-87
2020/12/16 10:52:48;;;;;;;23.23;12.90;;;;;;;4.50;82.06;98653.69;5051990;28;20064;-85
2020/12/16 10:55:14;;;;;;;25.13;13.48;;;;;;;4.30;82.76;98641.34;5051111;28;20116;-87
2020/12/16 10:57:40;;;;;;;21.42;12.68;;;;;;;4.31;82.64;98651.13;5049573;28;20025;-89
2020/12/16 11:00:06;;;;;;;21.85;12.45;;;;;;;4.24;82.88;98641.47;5051401;28;20513;-89
2020/12/16 11:02:31;;;;;;;27.23;13.57;;;;;;;4.10;83.59;98646.31;5050686;28;20021;-90
2020/12/16 11:04:57;;;;;;;22.23;11.48;;;;;;;4.23;83.46;98643.38;5051318;28;20741;-86
2020/12/16 11:07:22;;;;;;;26.48;14.30;;;;;;;4.16;83.75;98634.56;5050237;28;20021;-85
2020/12/16 11:09:48;;;;;;;25.55;11.38;;;;;;;4.28;83.22;98635.38;5051264;28;20104;-88
2020/12/16 11:12:13;;;;;;;27.02;14.63;;;;;;;4.39;82.69;98622.03;5051480;28;20108;-89
2020/12/16 11:14:39;;;;;;;29.70;13.43;;;;;;;4.43;83.09;98634.84;5050213;28;20021;-79
2020/12/16 11:17:05;;;;;;;28.17;13.30;;;;;;;4.51;82.62;98639.09;5037762;28;20068;-83
2020/12/16 11:19:30;;;;;;;20.52;10.40;;;;;;;4.49;82.46;98630.34;5040264;28;20047;-76
2020/12/16 11:21:56;;;;;;;32.00;14.05;;;;;;;4.33;83.34;98638.16;5040454;28;20029;-76
2020/12/16 11:24:23;;;;;;;29.80;13.75;;;;;;;4.41;83.17;98638.88;5039772;28;20044;-74
2020/12/16 11:26:51;;;;;;;26.55;13.90;;;;;;;4.37;83.06;98634.97;5039993;28;20047;-74
2020/12/16 11:29:18;;;;;;;24.35;14.55;;;;;;;4.72;82.21;98630.31;5039663;28;20113;-74
2020/12/16 11:31:52;;;;;;;31.02;15.25;;;;;;;4.62;81.99;98630.09;5038335;28;20029;-75
2020/12/16 11:34:22;;;;;;;25.90;11.95;;;;;;;4.46;82.39;98620.00;5039696;28;20020;-77
2020/12/16 11:36:49;;;;;;;25.13;13.57;;;;;;;4.47;82.82;98624.38;5038187;28;20538;-75
2020/12/16 11:39:16;;;;;;;28.85;13.65;;;;;;;4.56;82.22;98607.50;5037948;28;20052;-76
2020/12/16 11:41:49;;;;;;;27.70;13.82;;;;;;;4.54;82.40;98608.81;5037855;28;20036;-74
2020/12/16 11:44:19;;;;;;;34.20;14.73;;;;;;;4.52;82.61;98603.63;5038233;28;20094;-75
2020/12/16 11:46:46;;;;;;;44.50;21.17;;;;;;;4.55;83.05;98599.59;5038414;28;20446;-76
2020/12/16 11:49:12;;;;;;;33.15;15.00;;;;;;;4.27;83.51;98595.81;5036583;28;20025;-75
2020/12/16 11:51:38;;;;;;;28.42;14.15;;;;;;;4.50;83.07;98613.06;5040281;28;20541;-76
2020/12/16 11:54:04;;;;;;;25.55;13.93;;;;;;;4.27;84.03;98609.34;5038309;28;20036;-75
2020/12/16 11:56:35;;;;;;;32.20;16.65;;;;;;;4.27;84.21;98598.50;5044405;28;20017;-75